Hovedside
METAR-TAF:

METAR-TAF

Lufthavner :

Genève internasjonale lufthavn

Genève, Sveits

breddegrad: 46-15N, lengdegrad: 006-08E, høyde over havet: 420 m

Gjeldene værobservasjon

Denne rapporten ble laget for 29 minutter siden, klokken 17:20 UTC
Vind 3 kt fra Nord
Temperatur -1°C
Luftfuktighet 80%
Trykk 1018 hPa
Sikt 10 km eller mer
Brutte skyer i en høyde av 2800 ft

METAR: LSGG 121720Z 36003KT 9999 BKN028 M01/M04 Q1018 NOSIG

Tid: 18:49 (17:49 UTC)

Varsel

Denne rapporten ble laget for 24 minutter siden, klokken 17:25 UTC
Varsel gyldig fra 12. klokken 18 UTC til 13. klokken 24 UTC
Vind 3 kt fra Nord
Sikt 10 km eller mer
Spredte skyer i en høyde av 2500 ft
Blir
fra 12. klokken 21 UTC til 12. klokken 24 UTC
Brutte skyer i en høyde av 1400 ft
Blir
fra 13. klokken 10 UTC til 13. klokken 12 UTC
Få skyer i en høyde av 2000 ft
Brutte skyer i en høyde av 5000 ft

TAF: LSGG 121725Z 1218/1324 35003KT 9999 SCT025 TX02/1315Z TNM01/1306Z BECMG 1221/1224 BKN014 BECMG 1310/1312 FEW020 BKN050

Værobservasjoner og værvarsel for over 4000 flyplasser (METAR- og TAF-rapporter).

Tilgjengelige stasjoner er representert av de røde og gule prikkene på kartet.

Hold musepekeren over prikken for å se navnet på stasjonen.

Klikk så for å se værobservasjoner og -varsler.

For å forandre kartet kan du klikke på den grønne knappen med svart kryss for å zoome inn, på den grønne knappen med strek for å zoome ut, eller på de grønne pilene for å se tilstøtende kart.


METAR-TAF: